createdAt,value
2023-01-29T00:00:46.777Z,1023.29
2023-01-29T00:01:46.781Z,1023.26
2023-01-29T00:02:46.873Z,1023.27
2023-01-29T00:03:46.744Z,1023.31
2023-01-29T00:04:46.732Z,1023.25
2023-01-29T00:05:46.727Z,1023.20
2023-01-29T00:06:46.702Z,1023.25
2023-01-29T00:07:46.688Z,1023.22
2023-01-29T00:08:46.680Z,1023.24
2023-01-29T00:09:46.683Z,1023.27
2023-01-29T00:10:46.659Z,1023.26
2023-01-29T00:11:46.646Z,1023.28
2023-01-29T00:12:46.662Z,1023.29
2023-01-29T00:13:46.628Z,1023.27
2023-01-29T00:14:46.608Z,1023.36
2023-01-29T00:15:46.607Z,1023.34
2023-01-29T00:16:46.656Z,1023.31
2023-01-29T00:17:46.603Z,1023.38
2023-01-29T00:18:46.593Z,1023.45
2023-01-29T00:19:46.565Z,1023.36
2023-01-29T00:20:46.548Z,1023.39
2023-01-29T00:21:46.571Z,1023.38
2023-01-29T00:22:46.544Z,1023.38
2023-01-29T00:23:46.533Z,1023.29
2023-01-29T00:24:46.535Z,1023.30
2023-01-29T00:25:46.533Z,1023.26
2023-01-29T00:26:46.495Z,1023.22
2023-01-29T00:27:46.477Z,1023.23
2023-01-29T00:28:46.469Z,1023.21
2023-01-29T00:29:46.454Z,1023.19
2023-01-29T00:30:46.475Z,1023.19
2023-01-29T00:31:46.553Z,1023.14
2023-01-29T00:32:46.453Z,1023.18
2023-01-29T00:33:46.429Z,1023.10
2023-01-29T00:34:46.401Z,1023.14
2023-01-29T00:35:46.404Z,1023.03
2023-01-29T00:36:46.447Z,1023.14
2023-01-29T00:37:46.394Z,1023.12
2023-01-29T00:38:46.364Z,1023.09
2023-01-29T00:39:48.334Z,1023.06
2023-01-29T00:40:46.335Z,1023.05
2023-01-29T00:41:47.148Z,1023.08
2023-01-29T00:42:46.318Z,1023.10
2023-01-29T00:43:46.319Z,1023.03
2023-01-29T00:44:46.312Z,1022.93
2023-01-29T00:45:46.311Z,1022.97
2023-01-29T00:46:46.406Z,1022.91
2023-01-29T00:47:46.519Z,1022.89
2023-01-29T00:48:46.263Z,1022.95
2023-01-29T00:49:46.246Z,1022.98
2023-01-29T00:50:46.243Z,1022.91
2023-01-29T00:51:46.236Z,1022.99
2023-01-29T00:52:46.217Z,1023.00
2023-01-29T00:53:46.227Z,1023.00
2023-01-29T00:54:46.213Z,1023.03
2023-01-29T00:55:46.181Z,1022.99
2023-01-29T00:56:46.186Z,1022.98
2023-01-29T00:57:46.155Z,1022.93
2023-01-29T00:58:46.153Z,1022.99
2023-01-29T00:59:46.161Z,1022.95
2023-01-29T01:00:46.157Z,1022.98
2023-01-29T01:01:46.146Z,1022.94
2023-01-29T01:02:46.112Z,1022.96
2023-01-29T01:03:46.099Z,1022.95
2023-01-29T01:04:46.101Z,1023.01
2023-01-29T01:05:46.105Z,1022.99
2023-01-29T01:06:46.067Z,1023.00
2023-01-29T01:07:46.056Z,1023.05
2023-01-29T01:08:46.062Z,1023.02
2023-01-29T01:09:46.052Z,1023.04
2023-01-29T01:10:46.030Z,1023.02
2023-01-29T01:11:46.026Z,1023.03
2023-01-29T01:12:46.006Z,1023.04
2023-01-29T01:13:46.022Z,1023.07
2023-01-29T01:14:45.986Z,1023.08
2023-01-29T01:15:45.979Z,1023.05
2023-01-29T01:16:45.975Z,1023.10
2023-01-29T01:17:45.955Z,1023.05
2023-01-29T01:18:45.946Z,1023.05
2023-01-29T01:19:45.925Z,1023.03
2023-01-29T01:20:45.942Z,1023.07
2023-01-29T01:21:45.913Z,1022.93
2023-01-29T01:22:45.902Z,1022.97
2023-01-29T01:23:45.883Z,1022.97
2023-01-29T01:24:45.889Z,1022.97
2023-01-29T01:25:46.355Z,1022.88
2023-01-29T01:26:45.928Z,1022.89
2023-01-29T01:27:45.923Z,1022.88
2023-01-29T01:28:45.916Z,1022.83
2023-01-29T01:29:45.864Z,1022.83
2023-01-29T01:30:45.826Z,1022.82
2023-01-29T01:31:45.937Z,1022.79
2023-01-29T01:32:45.874Z,1022.72
2023-01-29T01:33:45.785Z,1022.74
2023-01-29T01:34:45.832Z,1022.80
2023-01-29T01:35:45.754Z,1022.91
2023-01-29T01:36:46.899Z,1022.87
2023-01-29T01:37:45.999Z,1022.94
2023-01-29T01:38:45.755Z,1023.03
2023-01-29T01:39:45.711Z,1023.01
2023-01-29T01:40:45.710Z,1023.03
2023-01-29T01:41:45.713Z,1023.04
2023-01-29T01:42:45.771Z,1023.06
2023-01-29T01:43:45.676Z,1023.08
2023-01-29T01:44:45.663Z,1023.08
2023-01-29T01:45:45.739Z,1023.10
2023-01-29T01:46:45.651Z,1023.10
2023-01-29T01:47:45.636Z,1023.15
2023-01-29T01:48:45.777Z,1023.05
2023-01-29T01:49:45.617Z,1023.03
2023-01-29T01:50:45.621Z,1023.08
2023-01-29T01:51:45.597Z,1023.06
2023-01-29T01:52:46.336Z,1023.06
2023-01-29T01:53:45.585Z,1023.02
2023-01-29T01:54:45.582Z,1023.03
2023-01-29T01:55:45.556Z,1023.00
2023-01-29T01:56:45.541Z,1022.99
2023-01-29T01:57:45.606Z,1022.95
2023-01-29T01:58:45.514Z,1022.93
2023-01-29T01:59:45.511Z,1022.95
2023-01-29T02:00:45.522Z,1022.85
2023-01-29T02:01:45.503Z,1022.87
2023-01-29T02:02:45.485Z,1022.92
2023-01-29T02:03:45.954Z,1022.83
2023-01-29T02:04:45.480Z,1022.87
2023-01-29T02:05:45.451Z,1022.81
2023-01-29T02:06:45.430Z,1022.83
2023-01-29T02:07:45.435Z,1022.76
2023-01-29T02:08:45.414Z,1022.70
2023-01-29T02:09:45.412Z,1022.74
2023-01-29T02:10:45.399Z,1022.71
2023-01-29T02:11:45.404Z,1022.74
2023-01-29T02:12:45.398Z,1022.69
2023-01-29T02:13:45.379Z,1022.68
2023-01-29T02:14:45.362Z,1022.70
2023-01-29T02:15:45.348Z,1022.67
2023-01-29T02:16:45.340Z,1022.66
2023-01-29T02:17:45.484Z,1022.64
2023-01-29T02:18:45.324Z,1022.62
2023-01-29T02:19:45.297Z,1022.58
2023-01-29T02:20:45.285Z,1022.60
2023-01-29T02:21:45.290Z,1022.59
2023-01-29T02:22:45.288Z,1022.57
2023-01-29T02:23:45.299Z,1022.57
2023-01-29T02:24:45.296Z,1022.50
2023-01-29T02:25:45.246Z,1022.52
2023-01-29T02:26:45.244Z,1022.51
2023-01-29T02:27:45.233Z,1022.62
2023-01-29T02:28:45.218Z,1022.59
2023-01-29T02:29:45.215Z,1022.63
2023-01-29T02:30:45.250Z,1022.65
2023-01-29T02:31:45.233Z,1022.64
2023-01-29T02:32:45.161Z,1022.68
2023-01-29T02:33:45.150Z,1022.61
2023-01-29T02:34:45.158Z,1022.71
2023-01-29T02:35:45.140Z,1022.70
2023-01-29T02:36:45.135Z,1022.71
2023-01-29T02:37:45.119Z,1022.70
2023-01-29T02:38:45.108Z,1022.65
2023-01-29T02:39:45.100Z,1022.68
2023-01-29T02:40:45.098Z,1022.66
2023-01-29T02:41:45.076Z,1022.63
2023-01-29T02:42:45.054Z,1022.67
2023-01-29T02:43:45.063Z,1022.53
2023-01-29T02:44:45.036Z,1022.62
2023-01-29T02:45:45.142Z,1022.59
2023-01-29T02:46:45.027Z,1022.61
2023-01-29T02:47:45.010Z,1022.60
2023-01-29T02:48:45.021Z,1022.57
2023-01-29T02:49:44.990Z,1022.56
2023-01-29T02:50:44.976Z,1022.55
2023-01-29T02:51:44.961Z,1022.58
2023-01-29T02:52:44.962Z,1022.60
2023-01-29T02:53:44.942Z,1022.61
2023-01-29T02:54:44.948Z,1022.60
2023-01-29T02:55:44.933Z,1022.57
2023-01-29T02:56:44.933Z,1022.61
2023-01-29T02:57:44.908Z,1022.52
2023-01-29T02:58:44.897Z,1022.54
2023-01-29T02:59:44.880Z,1022.63
2023-01-29T03:00:44.914Z,1022.64
2023-01-29T03:01:44.906Z,1022.57
2023-01-29T03:02:44.862Z,1022.52
2023-01-29T03:03:44.838Z,1022.55
2023-01-29T03:04:44.826Z,1022.47
2023-01-29T03:05:44.837Z,1022.50
2023-01-29T03:06:44.826Z,1022.45
2023-01-29T03:07:45.068Z,1022.50
2023-01-29T03:08:44.797Z,1022.46
2023-01-29T03:09:44.799Z,1022.40
2023-01-29T03:10:44.769Z,1022.39
2023-01-29T03:11:44.758Z,1022.43
2023-01-29T03:12:44.761Z,1022.40
2023-01-29T03:13:44.728Z,1022.51
2023-01-29T03:14:44.733Z,1022.51
2023-01-29T03:15:44.712Z,1022.46
2023-01-29T03:16:44.803Z,1022.47
2023-01-29T03:17:44.728Z,1022.50
2023-01-29T03:18:44.704Z,1022.52
2023-01-29T03:19:44.680Z,1022.56
2023-01-29T03:20:44.658Z,1022.57
2023-01-29T03:21:44.658Z,1022.52
2023-01-29T03:22:44.645Z,1022.53
2023-01-29T03:23:44.639Z,1022.52
2023-01-29T03:24:44.621Z,1022.52
2023-01-29T03:25:44.606Z,1022.55
2023-01-29T03:26:44.599Z,1022.56
2023-01-29T03:27:44.595Z,1022.54
2023-01-29T03:28:44.572Z,1022.48
2023-01-29T03:29:44.592Z,1022.54
2023-01-29T03:30:44.555Z,1022.45
2023-01-29T03:31:44.647Z,1022.39
2023-01-29T03:32:44.530Z,1022.48
2023-01-29T03:33:44.536Z,1022.38
2023-01-29T03:34:44.512Z,1022.40
2023-01-29T03:35:44.516Z,1022.39
2023-01-29T03:36:44.506Z,1022.37
2023-01-29T03:37:44.475Z,1022.33
2023-01-29T03:38:44.465Z,1022.32
2023-01-29T03:39:44.461Z,1022.33
2023-01-29T03:40:44.463Z,1022.26
2023-01-29T03:41:44.434Z,1022.21
2023-01-29T03:42:44.450Z,1022.22
2023-01-29T03:43:44.422Z,1022.23
2023-01-29T03:44:44.402Z,1022.21
2023-01-29T03:45:44.410Z,1022.14
2023-01-29T03:46:44.402Z,1022.09
2023-01-29T03:47:44.382Z,1022.08
2023-01-29T03:48:44.378Z,1022.11
2023-01-29T03:49:44.346Z,1022.05
2023-01-29T03:50:44.349Z,1022.06
2023-01-29T03:51:44.341Z,1022.06
2023-01-29T03:52:44.337Z,1022.06
2023-01-29T03:53:44.314Z,1022.06
2023-01-29T03:54:44.318Z,1022.13
2023-01-29T03:55:44.292Z,1022.04
2023-01-29T03:56:44.302Z,1022.03
2023-01-29T03:57:44.286Z,1022.01
2023-01-29T03:58:44.259Z,1021.98
2023-01-29T03:59:44.272Z,1021.92
2023-01-29T04:00:44.237Z,1021.95
2023-01-29T04:01:44.256Z,1021.86
2023-01-29T04:02:44.241Z,1021.83
2023-01-29T04:03:44.245Z,1021.76
2023-01-29T04:04:44.198Z,1021.77
2023-01-29T04:05:44.187Z,1021.76
2023-01-29T04:06:44.187Z,1021.71
2023-01-29T04:07:44.177Z,1021.68
2023-01-29T04:08:44.153Z,1021.67
2023-01-29T04:09:44.150Z,1021.62
2023-01-29T04:10:44.141Z,1021.56
2023-01-29T04:11:44.160Z,1021.52
2023-01-29T04:12:44.115Z,1021.46
2023-01-29T04:13:44.124Z,1021.48
2023-01-29T04:14:44.090Z,1021.47
2023-01-29T04:15:44.091Z,1021.44
2023-01-29T04:16:44.163Z,1021.42
2023-01-29T04:17:44.062Z,1021.39
2023-01-29T04:18:44.059Z,1021.35
2023-01-29T04:19:44.051Z,1021.35
2023-01-29T04:20:44.027Z,1021.30
2023-01-29T04:21:44.020Z,1021.41
2023-01-29T04:22:44.013Z,1021.35
2023-01-29T04:23:44.009Z,1021.30
2023-01-29T04:24:43.994Z,1021.30
2023-01-29T04:25:44.005Z,1021.28
2023-01-29T04:26:43.971Z,1021.35
2023-01-29T04:27:43.955Z,1021.27
2023-01-29T04:28:43.956Z,1021.24
2023-01-29T04:29:43.969Z,1021.15
2023-01-29T04:30:44.047Z,1021.13
2023-01-29T04:31:43.979Z,1021.14
2023-01-29T04:32:43.893Z,1021.11
2023-01-29T04:33:43.892Z,1021.13
2023-01-29T04:34:43.881Z,1021.12
2023-01-29T04:35:43.882Z,1021.16
2023-01-29T04:36:43.867Z,1021.17
2023-01-29T04:37:43.869Z,1021.19
2023-01-29T04:38:43.843Z,1021.18
2023-01-29T04:39:43.836Z,1021.20
2023-01-29T04:40:43.833Z,1021.23
2023-01-29T04:41:43.808Z,1021.24
2023-01-29T04:42:43.805Z,1021.27
2023-01-29T04:43:43.788Z,1021.27
2023-01-29T04:44:43.790Z,1021.23
2023-01-29T04:45:43.769Z,1021.24
2023-01-29T04:46:43.775Z,1021.31
2023-01-29T04:47:43.834Z,1021.30
2023-01-29T04:48:43.734Z,1021.29
2023-01-29T04:49:43.727Z,1021.28
2023-01-29T04:50:43.719Z,1021.25
2023-01-29T04:51:43.739Z,1021.25
2023-01-29T04:52:43.709Z,1021.19
2023-01-29T04:53:43.685Z,1021.29
2023-01-29T04:54:43.665Z,1021.22
2023-01-29T04:55:43.667Z,1021.18
2023-01-29T04:56:43.649Z,1021.18
2023-01-29T04:57:43.652Z,1021.16
2023-01-29T04:58:43.647Z,1021.13
2023-01-29T04:59:43.637Z,1021.25
2023-01-29T05:00:43.632Z,1021.19
2023-01-29T05:01:43.695Z,1021.19
2023-01-29T05:02:43.646Z,1021.23
2023-01-29T05:03:43.604Z,1021.22
2023-01-29T05:04:43.580Z,1021.27
2023-01-29T05:05:43.564Z,1021.22
2023-01-29T05:06:43.558Z,1021.25
2023-01-29T05:07:43.542Z,1021.31
2023-01-29T05:08:43.534Z,1021.32
2023-01-29T05:09:43.513Z,1021.23
2023-01-29T05:10:43.514Z,1021.26
2023-01-29T05:11:43.500Z,1021.23
2023-01-29T05:12:43.514Z,1021.26
2023-01-29T05:13:43.475Z,1021.21
2023-01-29T05:14:43.472Z,1021.18
2023-01-29T05:15:43.502Z,1021.26
2023-01-29T05:16:43.444Z,1021.25
2023-01-29T05:17:43.431Z,1021.24
2023-01-29T05:18:43.431Z,1021.25
2023-01-29T05:19:43.427Z,1021.22
2023-01-29T05:20:43.413Z,1021.22
2023-01-29T05:21:43.402Z,1021.30
2023-01-29T05:22:43.389Z,1021.27
2023-01-29T05:23:43.374Z,1021.29
2023-01-29T05:24:43.390Z,1021.33
2023-01-29T05:25:43.349Z,1021.31
2023-01-29T05:26:43.350Z,1021.38
2023-01-29T05:27:43.336Z,1021.28
2023-01-29T05:28:43.329Z,1021.31
2023-01-29T05:29:43.298Z,1021.29
2023-01-29T05:30:43.350Z,1021.30
2023-01-29T05:31:43.344Z,1021.19
2023-01-29T05:32:43.276Z,1021.21
2023-01-29T05:33:43.275Z,1021.22
2023-01-29T05:34:43.243Z,1021.21
2023-01-29T05:35:43.266Z,1021.27
2023-01-29T05:36:43.234Z,1021.24
2023-01-29T05:37:43.216Z,1021.22
2023-01-29T05:38:43.217Z,1021.33
2023-01-29T05:39:43.223Z,1021.31
2023-01-29T05:40:43.190Z,1021.32
2023-01-29T05:41:43.176Z,1021.33
2023-01-29T05:42:43.171Z,1021.35
2023-01-29T05:43:43.177Z,1021.35
2023-01-29T05:44:43.216Z,1021.35
2023-01-29T05:45:43.140Z,1021.36
2023-01-29T05:46:43.158Z,1021.34
2023-01-29T05:47:43.121Z,1021.38
2023-01-29T05:48:43.111Z,1021.34
2023-01-29T05:49:43.107Z,1021.40
2023-01-29T05:50:43.088Z,1021.43
2023-01-29T05:51:43.081Z,1021.38
2023-01-29T05:52:43.058Z,1021.44
2023-01-29T05:53:43.065Z,1021.43
2023-01-29T05:54:43.056Z,1021.47
2023-01-29T05:55:43.039Z,1021.52
2023-01-29T05:56:43.065Z,1021.48
2023-01-29T05:57:43.023Z,1021.49
2023-01-29T05:58:43.010Z,1021.54
2023-01-29T05:59:42.990Z,1021.47
2023-01-29T06:00:42.990Z,1021.45
2023-01-29T06:01:43.003Z,1021.45
2023-01-29T06:02:43.033Z,1021.42
2023-01-29T06:03:42.947Z,1021.44
2023-01-29T06:04:42.949Z,1021.47
2023-01-29T06:05:42.942Z,1021.46
2023-01-29T06:06:42.918Z,1021.52
2023-01-29T06:07:43.797Z,1021.51
2023-01-29T06:08:42.921Z,1021.48
2023-01-29T06:09:42.892Z,1021.57
2023-01-29T06:10:42.891Z,1021.53
2023-01-29T06:11:42.865Z,1021.50
2023-01-29T06:12:42.874Z,1021.55
2023-01-29T06:13:42.865Z,1021.55
2023-01-29T06:14:42.841Z,1021.57
2023-01-29T06:15:42.838Z,1021.58
2023-01-29T06:16:42.821Z,1021.60
2023-01-29T06:17:42.816Z,1021.59
2023-01-29T06:18:42.791Z,1021.65
2023-01-29T06:19:42.797Z,1021.67
2023-01-29T06:20:42.768Z,1021.62
2023-01-29T06:21:42.766Z,1021.60
2023-01-29T06:22:42.746Z,1021.59
2023-01-29T06:23:42.750Z,1021.63
2023-01-29T06:24:42.743Z,1021.60
2023-01-29T06:25:42.722Z,1021.61
2023-01-29T06:26:42.724Z,1021.55
2023-01-29T06:27:42.697Z,1021.47
2023-01-29T06:28:42.697Z,1021.52
2023-01-29T06:29:42.679Z,1021.52
2023-01-29T06:30:42.726Z,1021.50
2023-01-29T06:31:42.770Z,1021.54
2023-01-29T06:32:42.722Z,1021.58
2023-01-29T06:33:42.639Z,1021.57
2023-01-29T06:34:42.637Z,1021.54
2023-01-29T06:35:42.613Z,1021.44
2023-01-29T06:36:42.617Z,1021.51
2023-01-29T06:37:42.630Z,1021.59
2023-01-29T06:38:42.589Z,1021.60
2023-01-29T06:39:42.580Z,1021.62
2023-01-29T06:40:42.572Z,1021.63
2023-01-29T06:41:42.562Z,1021.61
2023-01-29T06:42:43.710Z,1021.57
2023-01-29T06:43:42.553Z,1021.60
2023-01-29T06:44:42.530Z,1021.60
2023-01-29T06:45:42.548Z,1021.61
2023-01-29T06:46:42.511Z,1021.59
2023-01-29T06:47:42.513Z,1021.57
2023-01-29T06:48:42.490Z,1021.58
2023-01-29T06:49:42.474Z,1021.73
2023-01-29T06:50:42.468Z,1021.78
2023-01-29T06:51:42.455Z,1021.74
2023-01-29T06:52:42.446Z,1021.68
2023-01-29T06:53:45.337Z,1021.72
2023-01-29T06:54:42.422Z,1021.80
2023-01-29T06:55:42.414Z,1021.70
2023-01-29T06:56:42.400Z,1021.71
2023-01-29T06:57:42.385Z,1021.63
2023-01-29T06:58:42.379Z,1021.62
2023-01-29T06:59:42.385Z,1021.64
2023-01-29T07:00:42.413Z,1021.63
2023-01-29T07:01:42.593Z,1021.63
2023-01-29T07:02:42.338Z,1021.59
2023-01-29T07:03:42.328Z,1021.56
2023-01-29T07:04:42.310Z,1021.55
2023-01-29T07:05:42.307Z,1021.55
2023-01-29T07:06:42.320Z,1021.58
2023-01-29T07:07:42.558Z,1021.59
2023-01-29T07:08:42.271Z,1021.57
2023-01-29T07:09:42.261Z,1021.53
2023-01-29T07:10:42.249Z,1021.52
2023-01-29T07:11:42.242Z,1021.52
2023-01-29T07:12:42.239Z,1021.51
2023-01-29T07:13:42.237Z,1021.66
2023-01-29T07:14:42.206Z,1021.56
2023-01-29T07:15:42.202Z,1021.64
2023-01-29T07:16:42.212Z,1021.55
2023-01-29T07:17:42.189Z,1021.57
2023-01-29T07:18:42.176Z,1021.51
2023-01-29T07:19:42.166Z,1021.45
2023-01-29T07:20:42.151Z,1021.46
2023-01-29T07:21:42.138Z,1021.42
2023-01-29T07:22:42.134Z,1021.42
2023-01-29T07:23:42.123Z,1021.41
2023-01-29T07:24:42.108Z,1021.39
2023-01-29T07:25:42.086Z,1021.35
2023-01-29T07:26:42.075Z,1021.27
2023-01-29T07:27:42.102Z,1021.48
2023-01-29T07:28:42.068Z,1021.50
2023-01-29T07:29:42.056Z,1021.61
2023-01-29T07:30:42.061Z,1021.69
2023-01-29T07:31:42.129Z,1021.82
2023-01-29T07:32:42.023Z,1021.79
2023-01-29T07:33:42.008Z,1021.76
2023-01-29T07:34:42.003Z,1021.72
2023-01-29T07:35:42.041Z,1021.72
2023-01-29T07:36:41.979Z,1021.71
2023-01-29T07:37:41.974Z,1021.66
2023-01-29T07:38:41.962Z,1021.65
2023-01-29T07:39:41.943Z,1021.64
2023-01-29T07:40:41.943Z,1021.67
2023-01-29T07:41:41.932Z,1021.70
2023-01-29T07:42:41.921Z,1021.68
2023-01-29T07:43:41.919Z,1021.67
2023-01-29T07:44:41.898Z,1021.57
2023-01-29T07:45:41.910Z,1021.48
2023-01-29T07:46:41.888Z,1021.43
2023-01-29T07:47:41.864Z,1021.40
2023-01-29T07:48:41.873Z,1021.41
2023-01-29T07:49:41.887Z,1021.35
2023-01-29T07:50:41.842Z,1021.31
2023-01-29T07:51:41.834Z,1021.30
2023-01-29T07:52:41.821Z,1021.26
2023-01-29T07:53:41.795Z,1021.25
2023-01-29T07:54:41.810Z,1021.20
2023-01-29T07:55:41.790Z,1021.23
2023-01-29T07:56:41.769Z,1021.28
2023-01-29T07:57:41.761Z,1021.28
2023-01-29T07:58:41.749Z,1021.34
2023-01-29T07:59:41.769Z,1021.39
2023-01-29T08:00:41.726Z,1021.37
2023-01-29T08:01:41.727Z,1021.34
2023-01-29T08:02:41.710Z,1021.43
2023-01-29T08:03:41.697Z,1021.38
2023-01-29T08:04:41.685Z,1021.33
2023-01-29T08:05:41.699Z,1021.33
2023-01-29T08:06:41.672Z,1021.35
2023-01-29T08:07:41.658Z,1021.31
2023-01-29T08:08:41.670Z,1021.31
2023-01-29T08:09:41.648Z,1021.32
2023-01-29T08:10:41.655Z,1021.36
2023-01-29T08:11:41.612Z,1021.36
2023-01-29T08:12:41.607Z,1021.28
2023-01-29T08:13:41.631Z,1021.19
2023-01-29T08:14:41.579Z,1021.08
2023-01-29T08:15:41.573Z,1021.09
2023-01-29T08:16:41.620Z,1021.03
2023-01-29T08:17:56.164Z,1021.08
2023-01-29T08:18:42.561Z,1021.09
2023-01-29T08:19:41.534Z,1021.15
2023-01-29T08:20:41.563Z,1021.21
2023-01-29T08:21:41.510Z,1021.15
2023-01-29T08:22:41.500Z,1021.09
2023-01-29T08:23:41.498Z,1021.09
2023-01-29T08:24:53.576Z,1021.08
2023-01-29T08:25:42.469Z,1021.07
2023-01-29T08:26:41.458Z,1021.07
2023-01-29T08:27:41.445Z,1020.96
2023-01-29T08:28:41.434Z,1020.90
2023-01-29T08:29:41.458Z,1020.93
2023-01-29T08:30:41.437Z,1020.99
2023-01-29T08:31:41.450Z,1021.01
2023-01-29T08:32:41.400Z,1021.06
2023-01-29T08:33:41.386Z,1020.99
2023-01-29T08:34:41.399Z,1020.99
2023-01-29T08:35:41.358Z,1020.96
2023-01-29T08:36:41.349Z,1020.93
2023-01-29T08:37:41.354Z,1021.00
2023-01-29T08:38:41.345Z,1020.95
2023-01-29T08:40:41.331Z,1021.08
2023-01-29T08:41:41.308Z,1021.06
2023-01-29T08:42:41.286Z,1021.04
2023-01-29T08:43:41.283Z,1021.15
2023-01-29T08:44:41.271Z,1021.24
2023-01-29T08:45:41.372Z,1021.21
2023-01-29T08:46:41.262Z,1021.15
2023-01-29T08:47:41.245Z,1021.16
2023-01-29T08:48:41.229Z,1021.13
2023-01-29T08:49:41.224Z,1021.06
2023-01-29T08:50:41.202Z,1021.10
2023-01-29T08:51:41.203Z,1021.02
2023-01-29T08:52:41.196Z,1021.03
2023-01-29T08:53:41.182Z,1021.04
2023-01-29T08:54:41.193Z,1021.02
2023-01-29T08:55:41.160Z,1021.08
2023-01-29T08:56:41.145Z,1020.98
2023-01-29T08:57:41.129Z,1021.10
2023-01-29T08:58:41.124Z,1021.07
2023-01-29T08:59:41.118Z,1021.00
2023-01-29T09:00:41.109Z,1020.97
2023-01-29T09:01:41.090Z,1020.92
2023-01-29T09:02:41.121Z,1020.89
2023-01-29T09:03:41.217Z,1020.94
2023-01-29T09:04:41.063Z,1020.98
2023-01-29T09:05:41.073Z,1020.97
2023-01-29T09:06:41.039Z,1021.01
2023-01-29T09:07:41.024Z,1020.93
2023-01-29T09:08:41.020Z,1021.01
2023-01-29T09:09:41.017Z,1020.97
2023-01-29T09:10:40.992Z,1020.89
2023-01-29T09:11:41.000Z,1020.91
2023-01-29T09:12:40.999Z,1020.90
2023-01-29T09:13:40.975Z,1020.90
2023-01-29T09:14:40.952Z,1020.87
2023-01-29T09:15:40.952Z,1020.84
2023-01-29T09:16:41.034Z,1020.88
2023-01-29T09:17:40.934Z,1020.88
2023-01-29T09:18:40.903Z,1020.88
2023-01-29T09:19:40.893Z,1020.90
2023-01-29T09:20:40.926Z,1020.88
2023-01-29T09:21:40.871Z,1020.85
2023-01-29T09:22:40.886Z,1020.93
2023-01-29T09:23:40.851Z,1020.90
2023-01-29T09:24:40.838Z,1020.99
2023-01-29T09:25:40.829Z,1020.99
2023-01-29T09:26:40.919Z,1020.93
2023-01-29T09:27:40.808Z,1020.86
2023-01-29T09:28:40.813Z,1020.90
2023-01-29T09:29:40.800Z,1020.93
2023-01-29T09:30:40.933Z,1020.99
2023-01-29T09:31:40.917Z,1021.01
2023-01-29T09:32:56.201Z,1020.91
2023-01-29T09:33:41.746Z,1020.83
2023-01-29T09:34:40.747Z,1020.77
2023-01-29T09:35:40.743Z,1020.78
2023-01-29T09:36:40.711Z,1020.76
2023-01-29T09:37:40.704Z,1020.77
2023-01-29T09:38:40.727Z,1020.80
2023-01-29T09:39:40.687Z,1020.81
2023-01-29T09:40:40.684Z,1020.82
2023-01-29T09:41:40.666Z,1020.81
2023-01-29T09:42:40.649Z,1020.78
2023-01-29T09:43:40.644Z,1020.74
2023-01-29T09:44:40.652Z,1020.76
2023-01-29T09:45:40.624Z,1020.65
2023-01-29T09:46:40.619Z,1020.71
2023-01-29T09:47:40.590Z,1020.78
2023-01-29T09:48:40.582Z,1020.77
2023-01-29T09:49:40.587Z,1020.67
2023-01-29T09:50:40.581Z,1020.76
2023-01-29T09:51:40.551Z,1020.67
2023-01-29T09:52:40.559Z,1020.69
2023-01-29T09:53:40.552Z,1020.67
2023-01-29T09:54:40.531Z,1020.54
2023-01-29T09:55:40.518Z,1020.55
2023-01-29T09:56:40.528Z,1020.52
2023-01-29T09:57:40.485Z,1020.56
2023-01-29T09:58:40.479Z,1020.51
2023-01-29T09:59:40.496Z,1020.46
2023-01-29T10:00:40.476Z,1020.42
2023-01-29T10:01:40.551Z,1020.34
2023-01-29T10:02:40.463Z,1020.35
2023-01-29T10:03:40.427Z,1020.31
2023-01-29T10:04:40.489Z,1020.27
2023-01-29T10:05:40.422Z,1020.27
2023-01-29T10:06:40.389Z,1020.33
2023-01-29T10:07:40.382Z,1020.22
2023-01-29T10:08:40.394Z,1020.21
2023-01-29T10:09:40.359Z,1020.32
2023-01-29T10:10:40.347Z,1020.26
2023-01-29T10:11:40.360Z,1020.29
2023-01-29T10:12:40.333Z,1020.27
2023-01-29T10:13:40.324Z,1020.28
2023-01-29T10:14:40.314Z,1020.29
2023-01-29T10:15:40.303Z,1020.29
2023-01-29T10:16:40.321Z,1020.34
2023-01-29T10:17:40.289Z,1020.25
2023-01-29T10:18:40.263Z,1020.29
2023-01-29T10:19:40.292Z,1020.34
2023-01-29T10:20:40.247Z,1020.29
2023-01-29T10:21:40.236Z,1020.26
2023-01-29T10:22:40.258Z,1020.24
2023-01-29T10:23:40.207Z,1020.31
2023-01-29T10:24:40.212Z,1020.27
2023-01-29T10:25:40.215Z,1020.27
2023-01-29T10:26:40.246Z,1020.29
2023-01-29T10:27:40.177Z,1020.32
2023-01-29T10:28:40.182Z,1020.31
2023-01-29T10:29:40.154Z,1020.26
2023-01-29T10:30:40.139Z,1020.31
2023-01-29T10:31:40.312Z,1020.28
2023-01-29T10:32:40.123Z,1020.31
2023-01-29T10:33:48.992Z,1020.35
2023-01-29T10:34:41.096Z,1020.31
2023-01-29T10:35:40.087Z,1020.34
2023-01-29T10:36:40.071Z,1020.28
2023-01-29T10:37:40.075Z,1020.30
2023-01-29T10:38:40.095Z,1020.32
2023-01-29T10:39:40.950Z,1020.34
2023-01-29T10:40:40.037Z,1020.28
2023-01-29T10:41:40.047Z,1020.34
2023-01-29T10:42:40.021Z,1020.31
2023-01-29T10:43:40.001Z,1020.29
2023-01-29T10:44:40.017Z,1020.28
2023-01-29T10:45:39.985Z,1020.20
2023-01-29T10:46:39.979Z,1020.24
2023-01-29T10:47:40.019Z,1020.26
2023-01-29T10:48:39.954Z,1020.13
2023-01-29T10:49:39.938Z,1020.14
2023-01-29T10:50:39.942Z,1020.11
2023-01-29T10:51:39.937Z,1020.10
2023-01-29T10:52:39.901Z,1020.08
2023-01-29T10:53:39.906Z,1020.05
2023-01-29T10:54:39.896Z,1019.93
2023-01-29T10:55:39.876Z,1019.87
2023-01-29T10:56:39.858Z,1019.83
2023-01-29T10:57:39.847Z,1019.81
2023-01-29T10:58:39.880Z,1019.83
2023-01-29T10:59:39.840Z,1019.93
2023-01-29T11:00:39.821Z,1019.88
2023-01-29T11:01:39.892Z,1019.95
2023-01-29T11:02:39.822Z,1019.93
2023-01-29T11:03:39.874Z,1019.89
2023-01-29T11:04:39.785Z,1019.93
2023-01-29T11:05:39.774Z,1020.00
2023-01-29T11:06:39.754Z,1019.92
2023-01-29T11:07:39.762Z,1019.92
2023-01-29T11:08:39.745Z,1019.94
2023-01-29T11:09:39.768Z,1019.86
2023-01-29T11:10:39.716Z,1019.77
2023-01-29T11:11:39.704Z,1019.67
2023-01-29T11:12:39.701Z,1019.70
2023-01-29T11:13:39.694Z,1019.68
2023-01-29T11:14:39.681Z,1019.67
2023-01-29T11:15:39.687Z,1019.63
2023-01-29T11:16:39.722Z,1019.59
2023-01-29T11:17:39.645Z,1019.63
2023-01-29T11:18:39.638Z,1019.49
2023-01-29T11:19:39.631Z,1019.56
2023-01-29T11:20:39.608Z,1019.58
2023-01-29T11:21:39.606Z,1019.56
2023-01-29T11:22:39.618Z,1019.57
2023-01-29T11:23:39.595Z,1019.55
2023-01-29T11:24:39.577Z,1019.57
2023-01-29T11:25:39.589Z,1019.58
2023-01-29T11:26:39.653Z,1019.58
2023-01-29T11:27:39.539Z,1019.52
2023-01-29T11:28:39.535Z,1019.49
2023-01-29T11:29:39.512Z,1019.54
2023-01-29T11:30:39.567Z,1019.49
2023-01-29T11:31:39.620Z,1019.42
2023-01-29T11:32:39.489Z,1019.41
2023-01-29T11:33:39.488Z,1019.39
2023-01-29T11:34:39.468Z,1019.31
2023-01-29T11:35:39.466Z,1019.28
2023-01-29T11:36:39.447Z,1019.24
2023-01-29T11:37:39.456Z,1019.18
2023-01-29T11:38:39.415Z,1019.24
2023-01-29T11:39:39.422Z,1019.20
2023-01-29T11:40:39.408Z,1019.22
2023-01-29T11:41:39.407Z,1019.18
2023-01-29T11:42:39.381Z,1019.12
2023-01-29T11:43:39.376Z,1019.11
2023-01-29T11:44:39.364Z,1019.11
2023-01-29T11:45:39.353Z,1019.10
2023-01-29T11:46:39.356Z,1019.10
2023-01-29T11:47:39.351Z,1019.11
2023-01-29T11:48:39.324Z,1019.06
2023-01-29T11:49:39.310Z,1019.04
2023-01-29T11:50:39.300Z,1019.01
2023-01-29T11:51:39.294Z,1019.12
2023-01-29T11:52:39.291Z,1019.11
2023-01-29T11:53:39.293Z,1019.07
2023-01-29T11:54:39.262Z,1019.08
2023-01-29T11:55:50.332Z,1018.94
2023-01-29T11:56:40.226Z,1019.00
2023-01-29T11:57:39.220Z,1018.95
2023-01-29T11:58:39.204Z,1019.05
2023-01-29T11:59:39.207Z,1019.02
2023-01-29T12:00:39.204Z,1018.98
2023-01-29T12:01:39.183Z,1019.06
2023-01-29T12:02:39.176Z,1018.94
2023-01-29T12:03:39.183Z,1019.02
2023-01-29T12:04:39.151Z,1018.98
2023-01-29T12:05:39.167Z,1018.99
2023-01-29T12:06:39.129Z,1018.95